Time;durP1;ratioP1;P1;durP2;ratioP2;P2;SDS_P1;SDS_P2;PMS_P1;PMS_P2;Temp;Humidity;BMP_temperature;BMP_pressure;BME280_temperature;BME280_humidity;BME280_pressure;Samples;Min_cycle;Max_cycle;Signal;HPM_P1;HPM_P2
2023/12/24 00:01:11;;;;;;;8.73;2.00;;;12.20;77.50;;;;;;5056628;28;20039;-63
2023/12/24 00:03:37;;;;;;;7.60;1.60;;;12.20;77.50;;;;;;5054026;28;20051;-63
2023/12/24 00:06:04;;;;;;;7.50;1.50;;;12.20;77.50;;;;;;5055657;28;20335;-63
2023/12/24 00:08:30;;;;;;;4.45;1.60;;;12.20;77.60;;;;;;5057824;28;20017;-64
2023/12/24 00:10:56;;;;;;;5.80;1.70;;;12.20;77.80;;;;;;5057888;28;20059;-64
2023/12/24 00:13:22;;;;;;;9.32;1.50;;;12.20;77.60;;;;;;5055278;28;20086;-63
2023/12/24 00:15:48;;;;;;;7.85;1.60;;;12.20;77.60;;;;;;5058484;28;20021;-63
2023/12/24 00:18:14;;;;;;;7.00;2.05;;;12.20;77.60;;;;;;5056528;28;20033;-64
2023/12/24 00:20:40;;;;;;;4.78;1.20;;;12.30;77.70;;;;;;5057592;28;20021;-63
2023/12/24 00:23:07;;;;;;;5.15;1.27;;;12.20;77.60;;;;;;5054564;28;20086;-64
2023/12/24 00:25:35;;;;;;;6.70;1.60;;;12.20;77.60;;;;;;5055866;28;20124;-63
2023/12/24 00:28:01;;;;;;;7.15;1.48;;;12.30;77.60;;;;;;5055627;28;20071;-64
2023/12/24 00:30:27;;;;;;;4.82;1.30;;;12.30;77.50;;;;;;5042970;28;20057;-63
2023/12/24 00:32:54;;;;;;;4.32;1.60;;;12.30;77.50;;;;;;5059735;28;20352;-63
2023/12/24 00:35:23;;;;;;;4.70;1.38;;;12.30;77.40;;;;;;5053137;28;20029;-63
2023/12/24 00:37:49;;;;;;;5.85;1.90;;;12.30;77.40;;;;;;5055404;28;20357;-64
2023/12/24 00:40:16;;;;;;;6.60;1.27;;;12.30;77.40;;;;;;5056539;28;20071;-63
2023/12/24 00:42:42;;;;;;;5.68;1.33;;;12.30;77.30;;;;;;5055800;28;20463;-63
2023/12/24 00:45:09;;;;;;;5.40;1.25;;;12.30;77.30;;;;;;5055281;28;20094;-63
2023/12/24 00:47:37;;;;;;;3.22;1.13;;;12.30;77.30;;;;;;5054495;28;20108;-63
2023/12/24 00:50:06;;;;;;;6.13;1.90;;;12.30;77.20;;;;;;5056384;28;20013;-63
2023/12/24 00:52:36;;;;;;;9.10;1.45;;;12.30;77.20;;;;;;5055639;28;20021;-63
2023/12/24 00:55:02;;;;;;;6.25;1.33;;;12.30;77.20;;;;;;5035459;28;20123;-63
2023/12/24 00:57:28;;;;;;;6.38;1.50;;;12.30;77.10;;;;;;5054987;28;20115;-63
2023/12/24 00:59:54;;;;;;;4.85;1.25;;;12.30;77.00;;;;;;5056380;28;20116;-63
2023/12/24 01:02:20;;;;;;;5.95;1.30;;;12.30;77.00;;;;;;5056295;28;20028;-63
2023/12/24 01:04:45;;;;;;;4.82;1.63;;;12.30;77.00;;;;;;5053526;28;20021;-63
2023/12/24 01:07:12;;;;;;;4.15;1.40;;;12.30;77.00;;;;;;5057175;28;20137;-63
2023/12/24 01:09:38;;;;;;;3.15;1.30;;;12.30;76.90;;;;;;5055717;28;20059;-64
2023/12/24 01:12:04;;;;;;;5.50;1.13;;;12.30;76.80;;;;;;5039281;28;20029;-63
2023/12/24 01:14:30;;;;;;;6.20;1.63;;;12.30;76.80;;;;;;5052592;28;20021;-63
2023/12/24 01:16:56;;;;;;;7.25;2.13;;;12.30;76.70;;;;;;5054243;28;20100;-63
2023/12/24 01:19:24;;;;;;;3.97;1.48;;;12.30;76.70;;;;;;5053367;28;20044;-63
2023/12/24 01:21:54;;;;;;;4.43;1.80;;;12.30;76.60;;;;;;5053784;28;20021;-64
2023/12/24 01:24:20;;;;;;;3.65;1.40;;;12.30;76.60;;;;;;5052503;28;20045;-63
2023/12/24 01:26:46;;;;;;;6.32;1.50;;;12.30;76.50;;;;;;5053785;28;20035;-63
2023/12/24 01:29:11;;;;;;;5.28;1.75;;;12.30;76.50;;;;;;5051746;28;20434;-63
2023/12/24 01:31:38;;;;;;;4.28;1.50;;;12.20;76.40;;;;;;5055064;28;20112;-64
2023/12/24 01:34:04;;;;;;;7.93;1.55;;;12.20;77.10;;;;;;5056077;28;20029;-63
2023/12/24 01:36:30;;;;;;;5.82;1.50;;;12.20;76.40;;;;;;5053972;28;20029;-63
2023/12/24 01:38:55;;;;;;;5.43;2.08;;;12.20;76.50;;;;;;5054340;28;20458;-64
2023/12/24 01:41:21;;;;;;;4.53;1.70;;;12.20;76.60;;;;;;5054999;28;20033;-63
2023/12/24 01:43:49;;;;;;;4.90;1.58;;;12.20;76.60;;;;;;5037201;28;20032;-64
2023/12/24 01:46:19;;;;;;;7.13;1.75;;;12.20;76.70;;;;;;5054529;28;20024;-63
2023/12/24 01:48:48;;;;;;;3.63;1.30;;;12.20;76.80;;;;;;5053897;28;20446;-64
2023/12/24 01:51:16;;;;;;;7.47;2.10;;;12.20;76.90;;;;;;5054950;28;20028;-64
2023/12/24 01:53:42;;;;;;;3.88;1.48;;;12.20;76.90;;;;;;5052126;28;20115;-64
2023/12/24 01:56:10;;;;;;;4.13;1.77;;;12.20;77.10;;;;;;5052020;28;20120;-63
2023/12/24 01:58:37;;;;;;;5.25;2.05;;;12.20;77.20;;;;;;5053779;28;20017;-64
2023/12/24 02:01:03;;;;;;;4.85;1.52;;;12.20;77.30;;;;;;5055107;28;20471;-63
2023/12/24 02:03:28;;;;;;;7.15;1.88;;;12.20;77.50;;;;;;5054122;28;20116;-63
2023/12/24 02:05:56;;;;;;;8.07;1.80;;;12.10;77.60;;;;;;5053409;28;20021;-63
2023/12/24 02:08:21;;;;;;;7.90;2.20;;;12.10;77.80;;;;;;5052647;28;20025;-63
2023/12/24 02:10:50;;;;;;;8.50;2.00;;;12.10;78.00;;;;;;5053623;28;20087;-63
2023/12/24 02:13:17;;;;;;;4.80;1.58;;;12.10;78.20;;;;;;5027720;28;20075;-64
2023/12/24 02:15:50;;;;;;;7.90;1.90;;;12.10;78.40;;;;;;5052127;28;20103;-64
2023/12/24 02:18:18;;;;;;;7.00;2.03;;;12.00;78.50;;;;;;5051436;28;20040;-64
2023/12/24 02:20:46;;;;;;;5.43;2.13;;;12.00;78.60;;;;;;5056723;28;20081;-64
2023/12/24 02:23:12;;;;;;;5.10;1.92;;;12.00;78.80;;;;;;5036373;28;20082;-63
2023/12/24 02:25:38;;;;;;;7.15;2.33;;;12.00;79.00;;;;;;5054980;28;20041;-63
2023/12/24 02:28:16;;;;;;;4.15;1.80;;;12.00;79.10;;;;;;5050296;28;20108;-64
2023/12/24 02:30:44;;;;;;;9.30;2.60;;;11.90;79.20;;;;;;5055825;28;20428;-63
2023/12/24 02:33:12;;;;;;;8.98;2.50;;;12.00;79.50;;;;;;5053554;28;20099;-64
2023/12/24 02:35:39;;;;;;;7.47;2.20;;;12.00;79.60;;;;;;5061368;28;20204;-63
2023/12/24 02:38:05;;;;;;;7.65;2.00;;;12.00;79.70;;;;;;5054241;28;20060;-63
2023/12/24 02:40:31;;;;;;;6.30;2.50;;;12.00;79.90;;;;;;5053612;28;20084;-63
2023/12/24 02:42:56;;;;;;;5.43;2.08;;;11.90;79.90;;;;;;5053763;28;20469;-63
2023/12/24 02:45:22;;;;;;;7.93;2.83;;;12.00;80.00;;;;;;5053053;28;20152;-63
2023/12/24 02:47:48;;;;;;;5.30;2.38;;;11.90;80.10;;;;;;5053000;28;20024;-63
2023/12/24 02:50:18;;;;;;;6.43;2.78;;;11.90;80.10;;;;;;5052025;28;20032;-63
2023/12/24 02:52:44;;;;;;;6.03;2.55;;;11.90;80.30;;;;;;5027149;28;20024;-64
2023/12/24 02:55:10;;;;;;;8.68;2.88;;;11.90;80.40;;;;;;5052961;28;20532;-64
2023/12/24 02:57:36;;;;;;;6.55;2.63;;;11.90;80.60;;;;;;5049331;28;21256;-64
2023/12/24 03:00:04;;;;;;;8.27;3.05;;;11.90;80.70;;;;;;5051491;28;20032;-64
2023/12/24 03:02:32;;;;;;;7.80;2.88;;;11.90;80.80;;;;;;5058287;28;20457;-63
2023/12/24 03:04:57;;;;;;;8.50;3.20;;;11.90;80.80;;;;;;5053710;28;20095;-63
2023/12/24 03:07:23;;;;;;;10.85;3.35;;;11.90;81.00;;;;;;5054939;28;20041;-64
2023/12/24 03:09:49;;;;;;;7.72;3.15;;;11.90;81.10;;;;;;5052603;28;20076;-63
2023/12/24 03:12:17;;;;;;;10.60;3.38;;;12.00;81.20;;;;;;5053044;28;20620;-63
2023/12/24 03:14:43;;;;;;;10.25;3.58;;;11.90;81.10;;;;;;5053154;28;20086;-64
2023/12/24 03:17:08;;;;;;;10.18;3.53;;;11.90;81.30;;;;;;5051828;28;20021;-64
2023/12/24 03:19:34;;;;;;;9.70;3.65;;;11.90;81.40;;;;;;5052968;28;20033;-63
2023/12/24 03:22:00;;;;;;;8.95;3.38;;;12.00;81.50;;;;;;5055501;28;20063;-63
2023/12/24 03:24:26;;;;;;;9.10;3.47;;;12.00;81.70;;;;;;5040093;28;20120;-63
2023/12/24 03:26:52;;;;;;;7.30;2.92;;;12.00;81.70;;;;;;5040030;28;20056;-64
2023/12/24 03:29:17;;;;;;;6.32;2.95;;;12.00;81.80;;;;;;5059292;28;20039;-63
2023/12/24 03:31:43;;;;;;;10.13;3.42;;;12.00;81.80;;;;;;5057575;28;20028;-64
2023/12/24 03:34:09;;;;;;;6.65;2.63;;;12.00;81.90;;;;;;5056724;28;20071;-63
2023/12/24 03:36:37;;;;;;;7.63;2.88;;;12.00;82.00;;;;;;5055361;28;20898;-63
2023/12/24 03:39:02;;;;;;;6.53;2.60;;;12.00;82.10;;;;;;5045895;28;20032;-64
2023/12/24 03:41:28;;;;;;;5.90;2.53;;;12.00;82.20;;;;;;5058191;28;20131;-63
2023/12/24 03:43:54;;;;;;;4.65;2.00;;;12.00;82.30;;;;;;5054842;28;20024;-64
2023/12/24 03:46:20;;;;;;;5.68;2.47;;;12.00;82.30;;;;;;5055946;28;20044;-63
2023/12/24 03:48:46;;;;;;;6.38;2.50;;;12.00;82.50;;;;;;5057378;28;20025;-63
2023/12/24 03:51:12;;;;;;;5.18;2.13;;;12.00;82.60;;;;;;5057624;28;20025;-63
2023/12/24 03:53:38;;;;;;;4.82;2.15;;;12.00;82.60;;;;;;5055300;28;20358;-64
2023/12/24 03:56:04;;;;;;;5.20;1.90;;;12.00;82.60;;;;;;5057043;28;20029;-63
2023/12/24 03:58:30;;;;;;;4.93;2.03;;;12.00;82.70;;;;;;5056963;28;20036;-64
2023/12/24 04:00:56;;;;;;;5.93;2.00;;;12.00;82.80;;;;;;5056808;28;20017;-63
2023/12/24 04:03:22;;;;;;;3.45;1.85;;;12.10;82.80;;;;;;5055460;28;20086;-64
2023/12/24 04:05:48;;;;;;;4.53;2.05;;;12.00;82.90;;;;;;5055909;28;20025;-63
2023/12/24 04:08:15;;;;;;;3.75;1.75;;;12.10;83.00;;;;;;5054548;28;20083;-63
2023/12/24 04:10:42;;;;;;;5.70;1.63;;;12.00;83.00;;;;;;5055905;28;20091;-63
2023/12/24 04:13:08;;;;;;;2.28;1.42;;;12.10;83.10;;;;;;5053357;28;20036;-64
2023/12/24 04:15:34;;;;;;;5.18;1.50;;;12.10;83.30;;;;;;5056165;28;20456;-64
2023/12/24 04:18:01;;;;;;;3.45;1.50;;;12.10;83.30;;;;;;5053274;28;20047;-63
2023/12/24 04:20:26;;;;;;;2.80;1.17;;;12.10;83.30;;;;;;5053883;28;20053;-64
2023/12/24 04:22:52;;;;;;;2.40;1.20;;;12.10;83.40;;;;;;5054644;28;20384;-63
2023/12/24 04:25:18;;;;;;;3.08;1.23;;;12.00;83.40;;;;;;5038095;28;20037;-64
2023/12/24 04:27:44;;;;;;;4.15;1.23;;;12.10;83.60;;;;;;5055528;28;20039;-64
2023/12/24 04:30:11;;;;;;;1.45;0.98;;;12.10;83.60;;;;;;5055235;28;20048;-64
2023/12/24 04:32:37;;;;;;;2.55;1.00;;;12.10;83.70;;;;;;5053755;28;20013;-64
2023/12/24 04:35:04;;;;;;;2.33;1.00;;;12.10;83.70;;;;;;5036780;28;20021;-63
2023/12/24 04:37:30;;;;;;;2.83;1.08;;;12.10;83.80;;;;;;5038118;28;20040;-64
2023/12/24 04:39:55;;;;;;;1.95;1.00;;;12.10;83.80;;;;;;5055096;28;20072;-63
2023/12/24 04:42:21;;;;;;;1.48;0.90;;;12.10;83.90;;;;;;5054947;28;20051;-63
2023/12/24 04:44:48;;;;;;;2.55;1.30;;;12.10;83.90;;;;;;5056512;28;20029;-64
2023/12/24 04:47:14;;;;;;;1.10;0.80;;;12.10;84.00;;;;;;5056149;28;20090;-64
2023/12/24 04:49:40;;;;;;;2.35;1.00;;;12.10;84.00;;;;;;5056872;28;20029;-64
2023/12/24 04:52:06;;;;;;;1.60;1.00;;;12.10;84.00;;;;;;5055674;28;20089;-64
2023/12/24 04:54:32;;;;;;;1.63;0.90;;;12.10;84.00;;;;;;5054827;28;20124;-64
2023/12/24 04:56:58;;;;;;;1.33;0.82;;;12.10;84.00;;;;;;5053475;28;20512;-64
2023/12/24 04:59:24;;;;;;;1.38;0.90;;;12.10;84.10;;;;;;5052906;28;20459;-64
2023/12/24 05:01:50;;;;;;;2.30;1.15;;;12.20;84.20;;;;;;5054861;28;20029;-64
2023/12/24 05:04:17;;;;;;;1.00;0.82;;;12.20;84.30;;;;;;5053743;28;20035;-64
2023/12/24 05:06:43;;;;;;;0.80;0.75;;;12.20;84.30;;;;;;5054779;28;20029;-64
2023/12/24 05:09:09;;;;;;;0.98;0.82;;;12.20;84.40;;;;;;5053804;28;20021;-63
2023/12/24 05:11:37;;;;;;;1.35;0.82;;;12.10;84.40;;;;;;5055048;28;20036;-63
2023/12/24 05:14:03;;;;;;;1.30;0.80;;;12.20;84.50;;;;;;5036309;28;20082;-64
2023/12/24 05:16:29;;;;;;;1.65;0.90;;;12.20;84.60;;;;;;5054249;28;20424;-64
2023/12/24 05:18:54;;;;;;;1.00;0.73;;;12.20;84.60;;;;;;5037553;28;20031;-63
2023/12/24 05:21:20;;;;;;;0.98;0.70;;;12.20;84.60;;;;;;5052326;28;20021;-64
2023/12/24 05:23:46;;;;;;;1.73;1.20;;;12.20;84.60;;;;;;5053322;28;20039;-64
2023/12/24 05:26:12;;;;;;;1.95;1.25;;;12.30;84.70;;;;;;5052396;28;20036;-63
2023/12/24 05:28:37;;;;;;;1.92;1.10;;;12.20;84.70;;;;;;5051452;28;20033;-64
2023/12/24 05:31:03;;;;;;;1.10;0.90;;;12.20;84.70;;;;;;5049667;28;20017;-64
2023/12/24 05:33:29;;;;;;;1.13;0.70;;;12.30;84.80;;;;;;5050973;28;20446;-63
2023/12/24 05:35:55;;;;;;;1.98;0.90;;;12.20;84.80;;;;;;5050123;28;20087;-64
2023/12/24 05:38:20;;;;;;;1.20;1.00;;;12.20;85.50;;;;;;5044672;28;20082;-64
2023/12/24 05:40:46;;;;;;;1.60;0.90;;;12.20;85.00;;;;;;5048223;28;20073;-64
2023/12/24 05:43:12;;;;;;;2.33;0.95;;;12.20;85.00;;;;;;5048508;28;20029;-63
2023/12/24 05:45:38;;;;;;;2.10;0.80;;;12.30;85.20;;;;;;5043685;28;20091;-63
2023/12/24 05:48:04;;;;;;;1.73;0.95;;;12.30;85.20;;;;;;5049693;28;20029;-63
2023/12/24 05:50:30;;;;;;;1.52;0.90;;;12.30;85.20;;;;;;5045008;28;20335;-63
2023/12/24 05:52:56;;;;;;;1.75;0.80;;;12.30;85.20;;;;;;5046563;28;20029;-63
2023/12/24 05:55:22;;;;;;;1.58;0.95;;;12.30;85.20;;;;;;5049327;28;20040;-63
2023/12/24 05:57:47;;;;;;;2.47;0.90;;;12.30;85.20;;;;;;5046475;28;20033;-64
2023/12/24 06:00:14;;;;;;;1.85;0.90;;;12.40;85.30;;;;;;5044860;28;20111;-63
2023/12/24 06:02:42;;;;;;;1.70;0.80;;;12.40;85.30;;;;;;5044689;28;20025;-63
2023/12/24 06:05:08;;;;;;;2.85;0.90;;;12.30;85.50;;;;;;5047317;28;20033;-64
2023/12/24 06:07:33;;;;;;;1.05;0.60;;;12.30;85.50;;;;;;5044342;28;20041;-64
2023/12/24 06:09:59;;;;;;;2.00;0.65;;;12.30;85.60;;;;;;5044258;28;20028;-63
2023/12/24 06:12:25;;;;;;;2.03;0.85;;;12.40;85.70;;;;;;5053682;28;20022;-63
2023/12/24 06:14:51;;;;;;;3.45;0.90;;;12.40;85.80;;;;;;5036758;28;20033;-64
2023/12/24 06:17:16;;;;;;;2.58;0.80;;;12.40;85.80;;;;;;5036513;28;20013;-64
2023/12/24 06:19:43;;;;;;;3.20;0.90;;;12.40;85.90;;;;;;5045453;28;20182;-64
2023/12/24 06:22:09;;;;;;;2.47;0.82;;;12.40;85.90;;;;;;5045988;28;20052;-63
2023/12/24 06:24:35;;;;;;;1.75;0.82;;;12.40;85.90;;;;;;5053464;28;20118;-63
2023/12/24 06:27:00;;;;;;;2.90;0.90;;;12.40;85.90;;;;;;5054116;28;20036;-63
2023/12/24 06:29:26;;;;;;;2.25;0.80;;;12.40;85.90;;;;;;5033128;28;20052;-63
2023/12/24 06:31:55;;;;;;;3.40;0.95;;;12.40;85.90;;;;;;5048362;28;20032;-63
2023/12/24 06:34:21;;;;;;;2.42;1.35;;;12.50;85.90;;;;;;5053611;28;20056;-64
2023/12/24 06:36:47;;;;;;;2.75;0.77;;;12.50;86.00;;;;;;5052916;28;20029;-63
2023/12/24 06:39:13;;;;;;;1.42;0.65;;;12.50;86.00;;;;;;5053325;28;20033;-63
2023/12/24 06:41:39;;;;;;;5.07;0.88;;;12.50;86.00;;;;;;5043131;28;20039;-64
2023/12/24 06:44:04;;;;;;;2.95;0.93;;;12.50;86.00;;;;;;5052876;28;20037;-63
2023/12/24 06:46:30;;;;;;;3.22;1.00;;;12.50;86.00;;;;;;5052799;28;20106;-64
2023/12/24 06:48:56;;;;;;;3.45;1.20;;;12.50;86.10;;;;;;5053693;28;20021;-64
2023/12/24 06:51:22;;;;;;;6.97;1.80;;;12.50;86.10;;;;;;5052147;28;20033;-63
2023/12/24 06:53:47;;;;;;;3.55;0.98;;;12.50;86.10;;;;;;5059873;28;20121;-63
2023/12/24 06:56:13;;;;;;;2.70;0.73;;;12.50;86.20;;;;;;5068653;28;20070;-63
2023/12/24 06:58:39;;;;;;;3.45;1.02;;;12.50;86.20;;;;;;5074355;28;20034;-63
2023/12/24 07:01:05;;;;;;;2.03;0.90;;;12.50;86.20;;;;;;5077304;28;20060;-63
2023/12/24 07:03:31;;;;;;;2.47;0.75;;;12.50;86.30;;;;;;5048554;28;20024;-63
2023/12/24 07:05:58;;;;;;;4.45;1.10;;;12.50;86.30;;;;;;5073005;28;20033;-63
2023/12/24 07:08:24;;;;;;;2.53;0.90;;;12.50;86.40;;;;;;5076997;28;20025;-63
2023/12/24 07:10:49;;;;;;;2.97;1.13;;;12.60;86.40;;;;;;5078269;28;20429;-64
2023/12/24 07:13:15;;;;;;;4.03;1.17;;;12.60;86.40;;;;;;5070747;28;20029;-63
2023/12/24 07:15:42;;;;;;;3.35;1.05;;;12.50;86.40;;;;;;5059472;28;20020;-63
2023/12/24 07:18:08;;;;;;;2.20;0.80;;;12.60;86.50;;;;;;5077401;28;20073;-63
2023/12/24 07:20:34;;;;;;;3.55;0.98;;;12.60;86.50;;;;;;5075417;28;20028;-64
2023/12/24 07:23:00;;;;;;;2.53;0.90;;;12.60;86.60;;;;;;5066728;28;20020;-63
2023/12/24 07:25:26;;;;;;;3.25;1.08;;;12.60;86.50;;;;;;5071843;28;20055;-63
2023/12/24 07:27:52;;;;;;;2.55;0.90;;;12.60;86.60;;;;;;5063277;28;20033;-64
2023/12/24 07:30:18;;;;;;;2.47;1.00;;;12.60;86.60;;;;;;5066867;28;20094;-64
2023/12/24 07:32:44;;;;;;;3.92;1.33;;;12.70;86.60;;;;;;5061175;28;20388;-64
2023/12/24 07:35:10;;;;;;;3.78;1.15;;;12.60;86.50;;;;;;5058228;28;20331;-64
2023/12/24 07:37:36;;;;;;;2.47;0.98;;;12.70;86.60;;;;;;5059862;28;20107;-64
2023/12/24 07:40:03;;;;;;;2.83;1.17;;;12.70;86.60;;;;;;5061940;28;20424;-64
2023/12/24 07:42:30;;;;;;;3.60;1.20;;;12.70;86.50;;;;;;5067544;28;20044;-64
2023/12/24 07:44:56;;;;;;;2.92;1.00;;;12.70;86.50;;;;;;5064001;28;20033;-64
2023/12/24 07:47:21;;;;;;;3.58;1.13;;;12.70;86.50;;;;;;5075440;28;20036;-64
2023/12/24 07:49:47;;;;;;;3.45;1.05;;;12.70;86.60;;;;;;5058565;28;20112;-64
2023/12/24 07:52:13;;;;;;;3.60;1.05;;;12.70;86.60;;;;;;5056913;28;20142;-64
2023/12/24 07:54:38;;;;;;;1.92;0.93;;;12.70;86.70;;;;;;5061522;28;20039;-64
2023/12/24 07:57:04;;;;;;;3.83;1.15;;;12.70;86.70;;;;;;5059961;28;20028;-65
2023/12/24 07:59:30;;;;;;;4.18;1.40;;;12.70;86.80;;;;;;5039530;28;20021;-64
2023/12/24 08:01:56;;;;;;;3.38;1.17;;;12.70;86.80;;;;;;5058577;28;20425;-63
2023/12/24 08:04:21;;;;;;;4.82;1.30;;;12.70;86.90;;;;;;5056241;28;20426;-64
2023/12/24 08:06:47;;;;;;;4.50;1.00;;;12.60;86.90;;;;;;5053994;28;20067;-63
2023/12/24 08:09:13;;;;;;;4.22;1.30;;;12.60;87.00;;;;;;5056811;28;20044;-64
2023/12/24 08:11:39;;;;;;;4.75;1.50;;;12.60;87.10;;;;;;5053218;28;20031;-64
2023/12/24 08:14:04;;;;;;;4.63;1.33;;;12.70;87.70;;;;;;5056749;28;20025;-64
2023/12/24 08:16:35;;;;;;;5.07;1.52;;;12.60;87.00;;;;;;5055186;28;20029;-64
2023/12/24 08:19:01;;;;;;;2.90;1.25;;;12.70;87.10;;;;;;5050264;28;20032;-64
2023/12/24 08:21:26;;;;;;;4.10;1.25;;;12.70;87.10;;;;;;5046873;28;20060;-64
2023/12/24 08:23:52;;;;;;;4.28;1.40;;;12.70;87.10;;;;;;5047182;28;20418;-64
2023/12/24 08:26:18;;;;;;;3.83;1.20;;;12.70;87.10;;;;;;5048653;28;20029;-64
2023/12/24 08:28:44;;;;;;;4.80;1.20;;;12.70;87.20;;;;;;5048447;28;20073;-63
2023/12/24 08:31:12;;;;;;;4.22;1.40;;;12.70;87.10;;;;;;5041250;28;20018;-64
2023/12/24 08:33:38;;;;;;;2.97;1.23;;;12.70;87.10;;;;;;5039469;28;20029;-64
2023/12/24 08:36:04;;;;;;;4.68;1.30;;;12.70;87.20;;;;;;5054443;28;20044;-64
2023/12/24 08:38:30;;;;;;;4.32;1.23;;;12.70;87.20;;;;;;5053210;28;20533;-64
2023/12/24 08:40:56;;;;;;;3.95;1.40;;;12.80;87.30;;;;;;5054504;28;20047;-64
2023/12/24 08:43:22;;;;;;;5.45;1.48;;;12.80;87.30;;;;;;5052606;28;20116;-64
2023/12/24 08:45:48;;;;;;;2.72;1.13;;;12.70;87.30;;;;;;5054763;28;20131;-64
2023/12/24 08:48:14;;;;;;;2.05;1.08;;;12.70;87.40;;;;;;5047386;28;20392;-63
2023/12/24 08:50:39;;;;;;;1.80;0.95;;;12.70;87.40;;;;;;5044249;28;20037;-64
2023/12/24 08:53:05;;;;;;;2.67;1.05;;;12.70;87.40;;;;;;5051625;28;20069;-63
2023/12/24 08:55:31;;;;;;;3.15;1.15;;;12.80;87.50;;;;;;5049876;28;20252;-63
2023/12/24 08:57:58;;;;;;;1.30;1.00;;;12.80;87.50;;;;;;5054246;28;20082;-63
2023/12/24 09:00:24;;;;;;;2.30;0.95;;;12.80;87.40;;;;;;5058031;28;20067;-64
2023/12/24 09:02:50;;;;;;;1.65;0.90;;;12.80;87.40;;;;;;5052941;28;20065;-64
2023/12/24 09:05:19;;;;;;;2.45;1.00;;;12.80;87.40;;;;;;5053789;28;20429;-64
2023/12/24 09:07:45;;;;;;;1.70;1.15;;;12.90;87.50;;;;;;5052201;28;20037;-63
2023/12/24 09:10:11;;;;;;;2.03;0.90;;;12.90;87.40;;;;;;5069827;28;20032;-63
2023/12/24 09:12:37;;;;;;;2.80;1.00;;;12.90;87.50;;;;;;5074272;28;20088;-63
2023/12/24 09:15:04;;;;;;;0.93;0.80;;;12.90;87.50;;;;;;5075100;28;20025;-63
2023/12/24 09:17:30;;;;;;;2.00;0.95;;;12.90;87.50;;;;;;5073692;28;20067;-64
2023/12/24 09:19:55;;;;;;;1.55;0.80;;;12.90;87.50;;;;;;5045947;28;20051;-63
2023/12/24 09:22:21;;;;;;;1.80;0.90;;;12.90;87.50;;;;;;5071165;28;20021;-63
2023/12/24 09:24:47;;;;;;;2.63;1.00;;;12.90;87.50;;;;;;5074168;28;20426;-63
2023/12/24 09:27:13;;;;;;;1.25;0.60;;;12.90;87.50;;;;;;5075301;28;20064;-63
2023/12/24 09:29:39;;;;;;;4.80;1.20;;;12.90;87.50;;;;;;5064938;28;20071;-63
2023/12/24 09:32:05;;;;;;;1.85;0.90;;;13.00;87.60;;;;;;5069522;28;20029;-63
2023/12/24 09:34:31;;;;;;;2.63;0.82;;;13.00;87.60;;;;;;5075172;28;20040;-63
2023/12/24 09:36:56;;;;;;;2.17;0.90;;;13.00;87.60;;;;;;5074875;28;20103;-63
2023/12/24 09:39:22;;;;;;;0.85;0.73;;;13.00;87.60;;;;;;5067309;28;20036;-63
2023/12/24 09:41:49;;;;;;;1.52;0.90;;;13.00;87.60;;;;;;5074867;28;20039;-63
2023/12/24 09:44:15;;;;;;;1.75;0.95;;;13.00;87.60;;;;;;5074679;28;20043;-63
2023/12/24 09:46:40;;;;;;;3.95;1.38;;;13.00;87.60;;;;;;5073765;28;20021;-64
2023/12/24 09:49:06;;;;;;;3.28;0.90;;;13.00;87.60;;;;;;5062956;28;20053;-63
2023/12/24 09:51:35;;;;;;;3.85;1.33;;;13.00;87.50;;;;;;5066059;28;20098;-63
2023/12/24 09:54:02;;;;;;;3.80;1.27;;;13.10;87.60;;;;;;5040047;28;20040;-63
2023/12/24 09:56:27;;;;;;;3.10;1.25;;;13.10;87.60;;;;;;5058476;28;20460;-64
2023/12/24 09:58:53;;;;;;;2.95;1.20;;;13.10;87.60;;;;;;5053807;28;20017;-64
2023/12/24 10:01:19;;;;;;;3.88;1.58;;;13.10;87.60;;;;;;5055368;28;20036;-64
2023/12/24 10:03:44;;;;;;;6.40;1.50;;;13.10;87.60;;;;;;5069457;28;20048;-64
2023/12/24 10:06:10;;;;;;;4.68;1.65;;;13.10;87.70;;;;;;5053035;28;20087;-64
2023/12/24 10:08:37;;;;;;;6.80;1.67;;;13.10;87.70;;;;;;5071566;28;20028;-64
2023/12/24 10:11:16;;;;;;;4.38;1.85;;;13.10;87.80;;;;;;5061292;28;20036;-64
2023/12/24 10:13:43;;;;;;;6.10;2.00;;;13.10;87.80;;;;;;5074803;28;20070;-64
2023/12/24 10:16:10;;;;;;;8.70;2.25;;;13.10;87.80;;;;;;5064018;28;20090;-64
2023/12/24 10:18:36;;;;;;;7.97;2.15;;;13.10;87.70;;;;;;5056608;28;20021;-64
2023/12/24 10:21:10;;;;;;;7.15;2.50;;;13.20;87.80;;;;;;5063597;28;20016;-64
2023/12/24 10:23:36;;;;;;;10.38;2.28;;;13.20;87.80;;;;;;5056944;28;20429;-63
2023/12/24 10:26:08;;;;;;;7.20;2.30;;;13.20;87.80;;;;;;5054893;28;20448;-64
2023/12/24 10:28:44;;;;;;;10.80;2.75;;;13.20;87.80;;;;;;5059741;28;20044;-64
2023/12/24 10:31:10;;;;;;;12.27;3.05;;;13.20;87.80;;;;;;5047191;28;20033;-64
2023/12/24 10:33:39;;;;;;;12.05;3.22;;;13.20;87.90;;;;;;5056306;28;20044;-63
2023/12/24 10:36:06;;;;;;;13.93;3.30;;;13.20;87.90;;;;;;5055370;28;20538;-64
2023/12/24 10:38:34;;;;;;;23.42;3.58;;;13.20;87.90;;;;;;5055905;28;20107;-63
2023/12/24 10:41:04;;;;;;;19.40;3.65;;;13.20;87.90;;;;;;5055413;28;20094;-63
2023/12/24 10:43:30;;;;;;;18.90;3.95;;;13.20;87.90;;;;;;5056965;28;20037;-63
2023/12/24 10:45:55;;;;;;;15.98;3.40;;;13.20;87.90;;;;;;5056604;28;20036;-63
2023/12/24 10:48:22;;;;;;;15.15;3.33;;;13.30;87.90;;;;;;5055113;28;20037;-63
2023/12/24 10:50:48;;;;;;;19.20;3.70;;;13.30;88.40;;;;;;5056898;28;20051;-63
2023/12/24 10:53:14;;;;;;;16.00;3.22;;;13.30;87.80;;;;;;5053013;28;20421;-63
2023/12/24 10:55:47;;;;;;;16.45;3.10;;;13.30;87.70;;;;;;5055212;28;20027;-63
2023/12/24 10:58:43;;;;;;;15.93;2.55;;;13.30;87.80;;;;;;5063153;28;20029;-64
2023/12/24 11:01:10;;;;;;;13.18;2.65;;;13.40;87.80;;;;;;5064589;28;20491;-63
2023/12/24 11:03:49;;;;;;;8.35;2.42;;;13.40;87.70;;;;;;5053489;28;20038;-64
2023/12/24 11:06:37;;;;;;;16.40;3.90;;;13.40;87.70;;;;;;5056017;28;20036;-63
2023/12/24 11:09:08;;;;;;;17.95;3.70;;;13.40;87.60;;;;;;5053412;28;20033;-63
2023/12/24 11:12:06;;;;;;;12.50;3.13;;;13.40;87.70;;;;;;5052908;28;20029;-63
2023/12/24 11:14:45;;;;;;;15.07;3.33;;;13.40;87.70;;;;;;5047284;28;20040;-63
2023/12/24 11:17:31;;;;;;;13.48;3.55;;;13.40;88.30;;;;;;5067703;28;20028;-63
2023/12/24 11:20:16;;;;;;;11.45;2.75;;;13.50;87.60;;;;;;5066946;28;20117;-63
2023/12/24 11:23:05;;;;;;;12.20;2.85;;;13.50;87.60;;;;;;5051784;28;20029;-63
2023/12/24 11:25:38;;;;;;;12.52;3.67;;;13.50;87.60;;;;;;5047891;28;20036;-63
2023/12/24 11:28:04;;;;;;;11.05;3.83;;;13.50;87.60;;;;;;5055274;28;20437;-63
2023/12/24 11:30:50;;;;;;;10.88;2.72;;;13.50;87.70;;;;;;5057388;28;20032;-63
2023/12/24 11:33:44;;;;;;;13.43;3.42;;;13.50;87.70;;;;;;5050555;28;20025;-63
2023/12/24 11:36:11;;;;;;;9.15;2.58;;;13.50;87.70;;;;;;5041489;28;20021;-63
2023/12/24 11:38:36;;;;;;;12.43;3.00;;;13.50;87.70;;;;;;5052439;28;20124;-63
2023/12/24 11:41:05;;;;;;;9.38;2.97;;;13.50;87.70;;;;;;5055919;28;20472;-63
2023/12/24 11:43:31;;;;;;;9.65;2.75;;;13.50;87.70;;;;;;5055754;28;20045;-63
2023/12/24 11:45:57;;;;;;;10.70;3.25;;;13.50;87.70;;;;;;5054944;28;20400;-64
2023/12/24 11:48:27;;;;;;;11.60;3.35;;;13.50;87.70;;;;;;5055067;28;20701;-63
2023/12/24 11:51:04;;;;;;;8.52;3.30;;;13.50;87.70;;;;;;5056097;28;20020;-63
2023/12/24 11:53:37;;;;;;;11.20;3.45;;;13.60;87.70;;;;;;5054137;28;20051;-63
2023/12/24 11:56:12;;;;;;;10.63;3.50;;;13.60;87.80;;;;;;5067315;28;20445;-63
2023/12/24 11:58:39;;;;;;;7.95;2.83;;;13.60;87.70;;;;;;5075183;28;20028;-64
2023/12/24 12:01:05;;;;;;;10.00;3.47;;;13.60;88.40;;;;;;5074405;28;20033;-63
2023/12/24 12:03:32;;;;;;;9.13;3.10;;;13.60;87.70;;;;;;5072780;28;20024;-63
2023/12/24 12:05:59;;;;;;;7.88;3.03;;;13.60;87.80;;;;;;5055887;28;20357;-63
2023/12/24 12:08:26;;;;;;;8.38;2.97;;;13.60;87.70;;;;;;5070503;28;20043;-63
2023/12/24 12:10:52;;;;;;;6.47;3.25;;;13.60;87.70;;;;;;5063166;28;20085;-63
2023/12/24 12:13:19;;;;;;;7.20;3.05;;;13.60;87.70;;;;;;5076461;28;20400;-63
2023/12/24 12:15:44;;;;;;;7.03;2.83;;;13.70;87.80;;;;;;5064595;28;20036;-63
2023/12/24 12:18:11;;;;;;;7.00;2.92;;;13.70;87.80;;;;;;5059082;28;20021;-63
2023/12/24 12:20:37;;;;;;;6.68;2.88;;;13.60;87.80;;;;;;5070927;28;20025;-63
2023/12/24 12:23:03;;;;;;;6.10;2.70;;;13.70;87.90;;;;;;5020579;28;20086;-62
2023/12/24 12:25:28;;;;;;;6.30;2.55;;;13.70;88.00;;;;;;5057213;28;20032;-63
2023/12/24 12:27:55;;;;;;;5.90;2.45;;;13.70;88.00;;;;;;5075459;28;20044;-63
2023/12/24 12:30:22;;;;;;;5.72;2.20;;;13.70;88.10;;;;;;5074712;28;20033;-62
2023/12/24 12:32:48;;;;;;;5.43;2.63;;;13.70;88.10;;;;;;5030290;28;20473;-63
2023/12/24 12:35:15;;;;;;;4.43;2.22;;;13.70;88.20;;;;;;5069254;28;20116;-63
2023/12/24 12:37:41;;;;;;;6.70;2.13;;;13.70;88.10;;;;;;5056004;28;20036;-63
2023/12/24 12:40:08;;;;;;;6.60;2.55;;;13.70;88.20;;;;;;5068284;28;20076;-62
2023/12/24 12:42:34;;;;;;;5.90;2.10;;;13.70;88.20;;;;;;5064181;28;20040;-63
2023/12/24 12:45:00;;;;;;;6.35;2.47;;;13.70;88.20;;;;;;5075911;28;20028;-63